Time;durP1;ratioP1;P1;durP2;ratioP2;P2;SDS_P1;SDS_P2;PMS_P1;PMS_P2;Temp;Humidity;BMP_temperature;BMP_pressure;BME280_temperature;BME280_humidity;BME280_pressure;Samples;Min_cycle;Max_cycle;Signal;HPM_P1;HPM_P2
2022/01/03 00:01:57;;;;;;;14.43;2.72;;;10.30;81.90;;;;;;5033127;28;20041;-89
2022/01/03 00:04:24;;;;;;;18.73;2.50;;;10.30;81.90;;;;;;5032941;28;20049;-89
2022/01/03 00:06:51;;;;;;;13.45;2.60;;;10.30;81.90;;;;;;5032920;28;20053;-90
2022/01/03 00:09:20;;;;;;;18.20;2.47;;;10.30;81.90;;;;;;5031907;28;20049;-89
2022/01/03 00:11:47;;;;;;;19.27;2.90;;;10.30;81.90;;;;;;5032998;28;20052;-89
2022/01/03 00:14:14;;;;;;;14.00;2.45;;;10.20;81.80;;;;;;5032913;28;20417;-89
2022/01/03 00:16:41;;;;;;;14.65;2.83;;;10.30;81.90;;;;;;5032937;28;20041;-89
2022/01/03 00:19:08;;;;;;;18.08;2.88;;;10.20;81.80;;;;;;5032887;28;20517;-89
2022/01/03 00:21:46;;;;;;;12.32;2.92;;;10.20;81.80;;;;;;5032673;28;20419;-90
2022/01/03 00:24:20;;;;;;;18.35;3.22;;;10.20;81.80;;;;;;5030917;28;20049;-88
2022/01/03 00:26:59;;;;;;;17.77;2.92;;;10.20;81.80;;;;;;5032971;28;20045;-89
2022/01/03 00:29:29;;;;;;;11.68;2.47;;;10.20;81.80;;;;;;5032860;28;20042;-89
2022/01/03 00:31:57;;;;;;;16.38;3.05;;;10.20;81.80;;;;;;5032926;28;20041;-89
2022/01/03 00:34:27;;;;;;;23.17;3.15;;;10.20;81.80;;;;;;5032868;28;20049;-90
2022/01/03 00:36:57;;;;;;;17.10;2.80;;;10.10;81.80;;;;;;5017128;28;20128;-89
2022/01/03 00:39:24;;;;;;;19.58;3.28;;;10.20;81.80;;;;;;5031957;28;20045;-89
2022/01/03 00:41:51;;;;;;;16.30;2.60;;;10.10;81.80;;;;;;5033309;28;20049;-89
2022/01/03 00:44:19;;;;;;;17.92;2.75;;;10.10;81.80;;;;;;5032680;28;20050;-90
2022/01/03 00:46:46;;;;;;;22.10;3.40;;;10.10;81.80;;;;;;5032633;28;20046;-89
2022/01/03 00:49:13;;;;;;;19.05;3.35;;;10.10;81.80;;;;;;5032812;28;20666;-89
2022/01/03 00:51:40;;;;;;;20.88;2.60;;;10.10;81.80;;;;;;5032573;28;20053;-89
2022/01/03 00:54:07;;;;;;;21.48;2.83;;;10.10;81.80;;;;;;5031951;28;20052;-89
2022/01/03 00:56:35;;;;;;;19.42;3.42;;;10.10;81.80;;;;;;5032612;28;20399;-89
2022/01/03 00:59:10;;;;;;;20.10;3.05;;;10.10;81.90;;;;;;5032252;28;20049;-89
2022/01/03 01:01:47;;;;;;;24.20;3.08;;;10.10;81.90;;;;;;5032683;28;20045;-89
2022/01/03 01:04:16;;;;;;;21.08;3.40;;;10.10;81.90;;;;;;5032607;28;20042;-88
2022/01/03 01:06:45;;;;;;;21.33;2.65;;;10.10;81.90;;;;;;5032123;28;20053;-88
2022/01/03 01:09:14;;;;;;;20.23;3.67;;;10.10;81.90;;;;;;5031702;28;20418;-89
2022/01/03 01:11:44;;;;;;;20.35;3.15;;;10.00;81.90;;;;;;5032485;28;20049;-89
2022/01/03 01:14:13;;;;;;;18.90;3.33;;;10.00;81.90;;;;;;5032421;28;20049;-89
2022/01/03 01:16:40;;;;;;;22.63;3.30;;;10.10;81.90;;;;;;5035758;28;20050;-89
2022/01/03 01:19:09;;;;;;;17.60;2.78;;;10.00;81.90;;;;;;5036012;28;20047;-89
2022/01/03 01:21:37;;;;;;;19.60;3.67;;;10.10;81.90;;;;;;5035466;28;20076;-89
2022/01/03 01:24:04;;;;;;;17.23;2.95;;;10.10;81.90;;;;;;5035229;28;20053;-89
2022/01/03 01:29:17;;;;;;;15.35;3.05;;;10.00;81.90;;;;;;5035733;28;20509;-89
2022/01/03 01:31:50;;;;;;;19.70;3.70;;;10.00;81.90;;;;;;5035703;28;20041;-89
2022/01/03 01:34:26;;;;;;;20.17;3.25;;;10.00;81.90;;;;;;5035731;28;20046;-89
2022/01/03 01:36:56;;;;;;;16.65;3.33;;;10.00;81.90;;;;;;5018735;28;20076;-89
2022/01/03 01:39:28;;;;;;;23.95;3.83;;;10.00;82.00;;;;;;5031048;28;20046;-89
2022/01/03 01:41:58;;;;;;;21.23;3.60;;;10.00;82.00;;;;;;5035591;28;20491;-89
2022/01/03 01:44:26;;;;;;;21.70;3.47;;;10.00;82.00;;;;;;5035528;28;20049;-89
2022/01/03 01:46:57;;;;;;;18.98;3.60;;;10.00;82.00;;;;;;5035401;28;20087;-89
2022/01/03 01:49:28;;;;;;;19.48;3.65;;;10.00;82.00;;;;;;5035197;28;20042;-90
2022/01/03 01:51:59;;;;;;;19.67;3.30;;;10.00;82.00;;;;;;5020094;28;20497;-89
2022/01/03 01:54:35;;;;;;;20.42;3.63;;;10.00;82.10;;;;;;5034447;28;20077;-89
2022/01/03 01:57:16;;;;;;;26.73;4.00;;;9.90;82.10;;;;;;5034476;28;20057;-90
2022/01/03 01:59:46;;;;;;;22.08;3.88;;;10.00;82.10;;;;;;5035082;28;20052;-89
2022/01/03 02:02:23;;;;;;;24.10;3.67;;;9.90;82.10;;;;;;5035304;28;20045;-89
2022/01/03 02:05:19;;;;;;;27.90;4.63;;;9.90;82.20;;;;;;5034927;28;20049;-88
2022/01/03 02:08:01;;;;;;;27.25;4.28;;;10.00;82.20;;;;;;5035202;28;20041;-89
2022/01/03 02:10:42;;;;;;;16.10;3.08;;;9.90;82.20;;;;;;5035134;28;20041;-89
2022/01/03 02:13:11;;;;;;;21.85;3.60;;;9.90;82.20;;;;;;5035263;28;20418;-89
2022/01/03 02:15:39;;;;;;;25.95;4.57;;;9.90;82.20;;;;;;5035021;28;20075;-88
2022/01/03 02:18:06;;;;;;;19.65;3.70;;;9.90;82.30;;;;;;5032185;28;20075;-89
2022/01/03 02:20:33;;;;;;;24.63;3.83;;;9.90;82.30;;;;;;5035703;28;20406;-89
2022/01/03 02:23:01;;;;;;;19.48;3.60;;;9.90;82.30;;;;;;5034684;28;20116;-89
2022/01/03 02:25:29;;;;;;;24.38;3.88;;;9.90;82.30;;;;;;5034753;28;20044;-89
2022/01/03 02:27:56;;;;;;;23.63;3.95;;;9.90;82.30;;;;;;5034919;28;20045;-89
2022/01/03 02:30:26;;;;;;;20.88;3.78;;;9.90;82.40;;;;;;5033810;28;20052;-89
2022/01/03 02:32:54;;;;;;;25.33;3.50;;;9.90;82.40;;;;;;5034266;28;20056;-89
2022/01/03 02:35:21;;;;;;;24.85;4.07;;;9.90;82.40;;;;;;5033387;28;20048;-89
2022/01/03 02:37:50;;;;;;;24.83;4.38;;;9.90;82.40;;;;;;5034414;28;20045;-89
2022/01/03 02:40:19;;;;;;;19.90;3.65;;;9.90;82.40;;;;;;5034539;28;20502;-90
2022/01/03 02:42:48;;;;;;;27.38;3.92;;;9.90;82.40;;;;;;5034594;28;20045;-88
2022/01/03 02:45:18;;;;;;;24.92;4.07;;;9.90;82.40;;;;;;5033538;28;20071;-89
2022/01/03 02:47:51;;;;;;;26.75;3.40;;;9.90;82.40;;;;;;5033896;28;20057;-90
2022/01/03 02:50:19;;;;;;;27.10;3.90;;;9.90;82.40;;;;;;5034349;28;20047;-90
2022/01/03 02:52:48;;;;;;;24.88;3.60;;;9.90;82.40;;;;;;5034398;28;20063;-89
2022/01/03 02:55:16;;;;;;;19.70;3.50;;;9.90;82.40;;;;;;5034055;28;20524;-89
2022/01/03 02:57:52;;;;;;;24.00;3.70;;;9.90;82.40;;;;;;5034085;28;20057;-89
2022/01/03 03:00:22;;;;;;;23.63;4.35;;;9.90;82.40;;;;;;5029160;28;20054;-90
2022/01/03 03:02:57;;;;;;;24.48;3.88;;;9.90;82.40;;;;;;5033261;28;20047;-89
2022/01/03 03:05:24;;;;;;;24.20;4.15;;;9.90;82.40;;;;;;5033738;28;20112;-88
2022/01/03 03:07:53;;;;;;;23.38;3.45;;;9.90;82.40;;;;;;5033859;28;20509;-90
2022/01/03 03:10:23;;;;;;;26.10;3.83;;;9.90;82.40;;;;;;5034042;28;20049;-89
2022/01/03 03:12:51;;;;;;;26.40;4.18;;;9.90;82.30;;;;;;5033967;28;20053;-88
2022/01/03 03:15:18;;;;;;;28.15;4.05;;;9.90;82.40;;;;;;5033056;28;20055;-89
2022/01/03 03:17:47;;;;;;;28.70;4.03;;;10.00;82.30;;;;;;5033265;28;20042;-90
2022/01/03 03:20:19;;;;;;;21.23;3.50;;;9.90;82.30;;;;;;5033810;28;20045;-88
2022/01/03 03:22:50;;;;;;;22.25;3.70;;;10.00;82.30;;;;;;5033754;28;20054;-89
2022/01/03 03:25:18;;;;;;;23.77;3.78;;;10.00;82.30;;;;;;5033701;28;20092;-89
2022/01/03 03:27:49;;;;;;;31.33;5.03;;;9.90;82.30;;;;;;5033710;28;20538;-89
2022/01/03 03:30:19;;;;;;;25.73;4.28;;;10.00;82.30;;;;;;5032810;28;20059;-89
2022/01/03 03:32:49;;;;;;;27.13;3.83;;;10.00;82.30;;;;;;5033281;28;20056;-89
2022/01/03 03:35:17;;;;;;;26.08;3.83;;;10.00;82.30;;;;;;5035016;28;20045;-89
2022/01/03 03:37:44;;;;;;;29.35;3.47;;;10.00;82.30;;;;;;5032960;28;20056;-88
2022/01/03 03:40:11;;;;;;;22.10;3.47;;;10.00;82.30;;;;;;5033565;28;20049;-89
2022/01/03 03:42:39;;;;;;;22.60;3.55;;;10.00;82.30;;;;;;5033648;28;20516;-89
2022/01/03 03:45:07;;;;;;;18.48;3.95;;;10.00;82.30;;;;;;5034363;28;20075;-89
2022/01/03 03:47:34;;;;;;;28.77;4.47;;;10.00;82.30;;;;;;5035240;28;20045;-89
2022/01/03 03:50:03;;;;;;;17.25;3.42;;;10.00;82.30;;;;;;5034531;28;20049;-89
2022/01/03 03:52:30;;;;;;;30.52;4.50;;;10.00;82.30;;;;;;5034701;28;20037;-89
2022/01/03 03:54:57;;;;;;;30.73;4.05;;;10.00;82.30;;;;;;5033476;28;20061;-89
2022/01/03 03:57:24;;;;;;;22.73;3.63;;;10.00;82.20;;;;;;5032327;28;20056;-88
2022/01/03 03:59:52;;;;;;;22.67;3.85;;;10.00;82.30;;;;;;5032237;28;20055;-89
2022/01/03 04:02:19;;;;;;;21.83;3.80;;;10.00;82.20;;;;;;5035486;28;20046;-89
2022/01/03 04:04:46;;;;;;;29.52;4.18;;;10.00;82.20;;;;;;5033088;28;20072;-89
2022/01/03 04:07:14;;;;;;;26.20;3.65;;;10.00;82.30;;;;;;5032988;28;20050;-89
2022/01/03 04:09:41;;;;;;;24.58;3.67;;;10.00;82.20;;;;;;5033223;28;20053;-88
2022/01/03 04:12:08;;;;;;;22.13;3.88;;;10.00;82.20;;;;;;5032240;28;20437;-88
2022/01/03 04:14:35;;;;;;;28.10;4.20;;;10.00;82.20;;;;;;5032533;28;20041;-89
2022/01/03 04:17:02;;;;;;;28.75;5.03;;;10.00;82.20;;;;;;5032860;28;20049;-89
2022/01/03 04:19:29;;;;;;;27.42;4.20;;;10.00;82.20;;;;;;5034164;28;20045;-89
2022/01/03 04:21:56;;;;;;;29.48;5.40;;;10.00;82.20;;;;;;5033049;28;20041;-89
2022/01/03 04:24:23;;;;;;;20.85;3.92;;;10.00;82.20;;;;;;5032049;28;20073;-88
2022/01/03 04:26:50;;;;;;;28.35;4.32;;;10.00;82.20;;;;;;5034505;28;20045;-89
2022/01/03 04:29:17;;;;;;;22.10;4.43;;;10.00;82.20;;;;;;5032404;28;20041;-89
2022/01/03 04:31:44;;;;;;;21.27;3.60;;;10.00;82.20;;;;;;5032856;28;20045;-90
2022/01/03 04:34:11;;;;;;;22.58;4.35;;;10.00;82.20;;;;;;5034443;28;20040;-89
2022/01/03 04:36:38;;;;;;;25.30;4.13;;;10.00;82.20;;;;;;5032913;28;20418;-89
2022/01/03 04:39:06;;;;;;;18.00;3.97;;;10.00;82.20;;;;;;5030882;28;20056;-87
2022/01/03 04:41:34;;;;;;;20.85;3.75;;;10.00;82.20;;;;;;5032758;28;20062;-88
2022/01/03 04:44:05;;;;;;;25.08;3.80;;;10.00;82.20;;;;;;5032494;28;20056;-89
2022/01/03 04:46:37;;;;;;;26.20;4.10;;;10.00;82.20;;;;;;5032715;28;20103;-88
2022/01/03 04:49:06;;;;;;;22.17;3.90;;;10.00;82.20;;;;;;5032870;28;20045;-89
2022/01/03 04:51:33;;;;;;;22.85;4.30;;;9.90;82.20;;;;;;5035215;28;20084;-89
2022/01/03 04:54:00;;;;;;;34.10;5.00;;;10.00;82.30;;;;;;5037769;28;20494;-89
2022/01/03 04:56:27;;;;;;;22.85;4.38;;;10.00;82.20;;;;;;5038808;28;20041;-89
2022/01/03 04:58:55;;;;;;;24.65;4.32;;;10.00;82.20;;;;;;5037405;28;20049;-89
2022/01/03 05:01:23;;;;;;;26.45;5.07;;;10.00;82.30;;;;;;5036519;28;20044;-89
2022/01/03 05:03:52;;;;;;;22.55;4.25;;;10.00;82.30;;;;;;5036413;28;20064;-88
2022/01/03 05:06:20;;;;;;;25.15;4.32;;;10.00;82.30;;;;;;5030991;28;20583;-89
2022/01/03 05:08:47;;;;;;;29.27;4.70;;;10.00;82.30;;;;;;5036287;28;20132;-88
2022/01/03 05:11:14;;;;;;;21.67;4.45;;;10.00;82.30;;;;;;5036096;28;20061;-88
2022/01/03 05:13:41;;;;;;;27.25;4.60;;;10.00;82.30;;;;;;5035924;28;20056;-88
2022/01/03 05:16:09;;;;;;;22.63;5.03;;;10.00;82.30;;;;;;5036270;28;20037;-89
2022/01/03 05:18:36;;;;;;;25.30;4.85;;;10.00;82.40;;;;;;5035709;28;20525;-89
2022/01/03 05:21:03;;;;;;;26.00;5.05;;;10.00;82.40;;;;;;5035201;28;20054;-88
2022/01/03 05:23:30;;;;;;;24.25;4.53;;;10.00;82.40;;;;;;5035987;28;20124;-89
2022/01/03 05:25:58;;;;;;;24.60;4.60;;;10.00;82.40;;;;;;5037447;28;20045;-88
2022/01/03 05:28:25;;;;;;;18.48;4.70;;;10.00;82.40;;;;;;5035603;28;20049;-89
2022/01/03 05:30:52;;;;;;;21.85;4.53;;;10.00;82.50;;;;;;5021236;28;20511;-90
2022/01/03 05:33:20;;;;;;;20.95;4.28;;;10.10;82.50;;;;;;5029621;28;20049;-89
2022/01/03 05:35:47;;;;;;;20.48;4.25;;;10.00;82.50;;;;;;5035605;28;20042;-89
2022/01/03 05:38:14;;;;;;;20.95;4.38;;;10.00;82.60;;;;;;5035544;28;20046;-89
2022/01/03 05:40:41;;;;;;;24.95;5.07;;;10.00;82.60;;;;;;5035715;28;20050;-89
2022/01/03 05:43:10;;;;;;;21.90;5.10;;;10.00;82.60;;;;;;5035466;28;20520;-89
2022/01/03 05:45:38;;;;;;;30.67;5.35;;;10.00;82.60;;;;;;5035571;28;20132;-89
2022/01/03 05:48:06;;;;;;;27.05;4.70;;;10.00;82.60;;;;;;5032861;28;20557;-89
2022/01/03 05:50:33;;;;;;;21.35;4.68;;;10.00;82.70;;;;;;5035457;28;20049;-89
2022/01/03 05:53:00;;;;;;;23.73;4.65;;;10.00;82.70;;;;;;5035404;28;20041;-89
2022/01/03 05:55:27;;;;;;;18.42;4.47;;;10.00;82.70;;;;;;5035401;28;20049;-89
2022/01/03 05:57:54;;;;;;;25.17;4.20;;;10.00;82.70;;;;;;5035199;28;20067;-89
2022/01/03 06:00:24;;;;;;;20.50;4.28;;;10.00;82.70;;;;;;5030147;28;20112;-90
2022/01/03 06:02:57;;;;;;;18.95;4.47;;;10.00;82.70;;;;;;5034918;28;20045;-88
2022/01/03 06:08:05;;;;;;;17.00;4.47;;;10.00;82.80;;;;;;5037551;28;20048;-88
2022/01/03 06:10:33;;;;;;;18.15;3.70;;;10.00;82.80;;;;;;5034632;28;20056;-89
2022/01/03 06:13:00;;;;;;;16.98;3.63;;;10.00;82.80;;;;;;5035098;28;20044;-88
2022/01/03 06:15:27;;;;;;;19.40;3.88;;;10.00;82.80;;;;;;5034152;28;20494;-89
2022/01/03 06:17:54;;;;;;;24.90;3.85;;;10.00;82.80;;;;;;5034945;28;20046;-89
2022/01/03 06:20:21;;;;;;;16.52;3.55;;;10.00;82.90;;;;;;5037184;28;20041;-88
2022/01/03 06:22:48;;;;;;;20.65;4.10;;;10.00;82.90;;;;;;5034904;28;20045;-88
2022/01/03 06:25:15;;;;;;;19.02;4.07;;;10.00;82.90;;;;;;5035868;28;20517;-89
2022/01/03 06:27:42;;;;;;;21.73;3.97;;;10.00;82.90;;;;;;5034850;28;20055;-89
2022/01/03 06:30:12;;;;;;;16.10;3.22;;;10.00;82.90;;;;;;5034012;28;20050;-88
2022/01/03 06:32:39;;;;;;;24.80;4.05;;;10.00;83.00;;;;;;5034752;28;20107;-89
2022/01/03 06:35:07;;;;;;;22.90;3.30;;;10.00;83.00;;;;;;5034565;28;20065;-87
2022/01/03 06:37:34;;;;;;;13.18;3.45;;;10.00;83.10;;;;;;5034585;28;20045;-87
2022/01/03 06:40:02;;;;;;;22.23;3.92;;;10.00;83.10;;;;;;5034344;28;20053;-88
2022/01/03 06:42:29;;;;;;;23.25;4.15;;;10.00;83.20;;;;;;5033606;28;20045;-88
2022/01/03 06:44:56;;;;;;;15.43;3.53;;;10.00;83.20;;;;;;5034641;28;20056;-88
2022/01/03 06:47:23;;;;;;;16.33;3.47;;;10.00;83.20;;;;;;5034816;28;20052;-88
2022/01/03 06:49:50;;;;;;;15.15;3.72;;;10.00;83.30;;;;;;5034420;28;20052;-88
2022/01/03 06:52:17;;;;;;;19.17;3.30;;;10.00;83.30;;;;;;5034399;28;20046;-89
2022/01/03 06:54:44;;;;;;;23.00;4.30;;;10.00;83.30;;;;;;5033926;28;20207;-89
2022/01/03 06:57:12;;;;;;;17.00;3.65;;;10.00;83.40;;;;;;5033618;28;20048;-88
2022/01/03 06:59:39;;;;;;;22.00;4.15;;;10.00;83.40;;;;;;5034019;28;20482;-88
2022/01/03 07:02:06;;;;;;;21.40;4.55;;;10.00;83.40;;;;;;5034051;28;20043;-88
2022/01/03 07:04:33;;;;;;;22.20;3.70;;;10.00;83.40;;;;;;5033975;28;20088;-88
2022/01/03 07:07:04;;;;;;;18.98;4.40;;;10.00;83.50;;;;;;5033953;28;20051;-88
2022/01/03 07:09:31;;;;;;;17.48;4.10;;;10.00;83.50;;;;;;5032772;28;20132;-89
2022/01/03 07:11:58;;;;;;;18.13;4.05;;;10.00;83.50;;;;;;5033359;28;20049;-89
2022/01/03 07:19:47;;;;;;;19.20;3.75;;;10.00;83.60;;;;;;5033806;28;20049;-87
2022/01/03 07:22:14;;;;;;;22.38;4.18;;;10.00;83.60;;;;;;5032636;28;20049;-88
2022/01/03 07:24:41;;;;;;;23.00;5.20;;;10.00;83.60;;;;;;5033284;28;20054;-89
2022/01/03 07:27:10;;;;;;;23.58;5.07;;;10.00;83.60;;;;;;5032928;28;20042;-89
2022/01/03 07:29:38;;;;;;;20.17;4.90;;;10.00;83.60;;;;;;5033486;28;20056;-89
2022/01/03 07:32:05;;;;;;;21.70;4.90;;;9.90;83.70;;;;;;5033569;28;20041;-89
2022/01/03 07:34:33;;;;;;;26.65;4.78;;;9.90;83.60;;;;;;5033509;28;20136;-88
2022/01/03 07:37:01;;;;;;;25.90;5.82;;;10.00;83.70;;;;;;5032372;28;20500;-88
2022/01/03 07:39:31;;;;;;;24.83;4.72;;;10.00;83.70;;;;;;5032403;28;20136;-88
2022/01/03 07:41:58;;;;;;;18.63;3.70;;;10.00;83.70;;;;;;5033920;28;20045;-89
2022/01/03 07:44:26;;;;;;;23.60;4.75;;;10.00;83.70;;;;;;5033309;28;20458;-88
2022/01/03 07:46:54;;;;;;;28.15;5.20;;;10.00;83.70;;;;;;5033323;28;20128;-89
2022/01/03 07:49:22;;;;;;;21.63;4.72;;;9.90;83.70;;;;;;5033445;28;20406;-88
2022/01/03 07:51:49;;;;;;;32.55;4.65;;;10.00;83.70;;;;;;5033279;28;20521;-83
2022/01/03 07:54:16;;;;;;;28.45;6.03;;;10.00;83.70;;;;;;5032329;28;20409;-88
2022/01/03 07:56:43;;;;;;;23.75;4.72;;;10.00;83.70;;;;;;5033327;28;20059;-89
2022/01/03 07:59:10;;;;;;;32.67;4.97;;;10.00;83.70;;;;;;5033163;28;20056;-89
2022/01/03 08:01:40;;;;;;;22.48;4.75;;;10.00;83.70;;;;;;5033085;28;20055;-87
2022/01/03 08:04:08;;;;;;;23.48;4.78;;;10.00;83.70;;;;;;5031924;28;20041;-89
2022/01/03 08:06:46;;;;;;;24.73;5.20;;;10.00;83.70;;;;;;5032253;28;20057;-89
2022/01/03 08:09:13;;;;;;;20.27;4.35;;;10.00;83.70;;;;;;5031376;28;20477;-88
2022/01/03 08:11:40;;;;;;;24.70;4.95;;;10.00;83.70;;;;;;5032827;28;20498;-90
2022/01/03 08:14:07;;;;;;;27.15;4.93;;;10.00;83.70;;;;;;5032693;28;20051;-89
2022/01/03 08:16:34;;;;;;;23.17;5.68;;;10.00;83.70;;;;;;5032508;28;20085;-89
2022/01/03 08:19:02;;;;;;;29.42;5.63;;;10.00;83.70;;;;;;5032353;28;20068;-89
2022/01/03 08:21:29;;;;;;;30.65;5.00;;;10.00;83.70;;;;;;5031151;28;20056;-89
2022/01/03 08:23:57;;;;;;;29.25;5.63;;;10.00;83.70;;;;;;5033434;28;20399;-89
2022/01/03 08:26:24;;;;;;;28.55;5.15;;;10.00;83.70;;;;;;5036768;28;20049;-89
2022/01/03 08:28:51;;;;;;;22.08;4.72;;;10.00;83.70;;;;;;5036725;28;20510;-89
2022/01/03 08:31:18;;;;;;;27.17;5.55;;;10.00;83.70;;;;;;5035404;28;20045;-89
2022/01/03 08:33:45;;;;;;;27.42;5.28;;;10.00;83.70;;;;;;5036415;28;20041;-90
2022/01/03 08:36:12;;;;;;;23.15;4.20;;;10.00;83.80;;;;;;5035444;28;20521;-89
2022/01/03 08:38:40;;;;;;;27.05;4.80;;;10.00;83.70;;;;;;5036213;28;20048;-90
2022/01/03 08:41:07;;;;;;;29.35;5.90;;;10.00;83.70;;;;;;5036456;28;20045;-89
2022/01/03 08:43:34;;;;;;;27.08;4.90;;;10.00;83.70;;;;;;5036537;28;20037;-90
2022/01/03 08:46:01;;;;;;;27.88;5.05;;;10.00;83.70;;;;;;5036124;28;20050;-91
2022/01/03 08:48:29;;;;;;;27.27;4.85;;;10.00;83.70;;;;;;5035423;28;20514;-90
2022/01/03 08:50:56;;;;;;;23.35;4.28;;;10.00;83.70;;;;;;5036328;28;20049;-89
2022/01/03 08:53:26;;;;;;;23.55;4.65;;;10.00;83.70;;;;;;5035806;28;20042;-89
2022/01/03 08:55:55;;;;;;;26.55;4.20;;;10.00;83.70;;;;;;5036190;28;20137;-89
2022/01/03 08:58:23;;;;;;;22.58;4.43;;;10.00;83.80;;;;;;5036150;28;20046;-89
2022/01/03 09:00:51;;;;;;;27.45;5.20;;;10.00;83.80;;;;;;5035703;28;20046;-89
2022/01/03 09:03:18;;;;;;;31.17;5.10;;;10.00;83.70;;;;;;5035409;28;20041;-89
2022/01/03 09:05:46;;;;;;;26.20;4.57;;;10.00;83.70;;;;;;5034191;28;20119;-90
2022/01/03 09:08:13;;;;;;;25.92;5.18;;;10.00;83.70;;;;;;5035743;28;20046;-90
2022/01/03 09:10:40;;;;;;;28.33;4.57;;;10.00;83.70;;;;;;5036124;28;20045;-90
2022/01/03 09:13:11;;;;;;;23.33;4.32;;;10.10;83.80;;;;;;5035991;28;20457;-89
2022/01/03 09:15:44;;;;;;;26.23;4.88;;;10.00;83.80;;;;;;5035499;28;20055;-90
2022/01/03 09:18:14;;;;;;;41.33;6.63;;;10.00;83.80;;;;;;5034921;28;20054;-89
2022/01/03 09:20:41;;;;;;;30.20;4.50;;;10.10;83.80;;;;;;5035363;28;20685;-90
2022/01/03 09:23:13;;;;;;;32.15;5.47;;;10.10;83.80;;;;;;5035276;28;20414;-90
2022/01/03 09:30:55;;;;;;;25.92;4.80;;;10.10;83.90;;;;;;5020009;28;20055;-89
2022/01/03 09:33:22;;;;;;;31.13;4.15;;;10.10;83.90;;;;;;5034491;28;20052;-89
2022/01/03 09:35:52;;;;;;;30.80;4.47;;;10.10;83.90;;;;;;5036143;28;20045;-91
2022/01/03 09:38:19;;;;;;;31.10;4.72;;;10.20;83.90;;;;;;5035343;28;20041;-90
2022/01/03 09:40:47;;;;;;;21.48;3.78;;;10.20;83.90;;;;;;5035653;28;20128;-90
2022/01/03 09:43:17;;;;;;;24.85;4.32;;;10.20;84.00;;;;;;5035568;28;20054;-90
2022/01/03 09:45:47;;;;;;;26.02;4.40;;;10.20;84.00;;;;;;5035160;28;20137;-90
2022/01/03 09:48:15;;;;;;;32.58;5.03;;;10.20;84.00;;;;;;5034192;28;20454;-90
2022/01/03 09:50:44;;;;;;;24.45;5.07;;;10.20;84.00;;;;;;5035243;28;20128;-92
2022/01/03 09:53:12;;;;;;;31.25;5.18;;;10.20;84.00;;;;;;5034738;28;20049;-90
2022/01/03 09:55:42;;;;;;;20.67;4.05;;;10.20;84.00;;;;;;5034970;28;20037;-89
2022/01/03 09:58:10;;;;;;;21.92;4.05;;;10.30;84.00;;;;;;5035108;28;20128;-91
2022/01/03 10:00:38;;;;;;;26.83;4.70;;;10.30;84.00;;;;;;5035012;28;20059;-91
2022/01/03 10:03:05;;;;;;;25.70;4.13;;;10.30;84.00;;;;;;5031948;28;20049;-90
2022/01/03 10:05:32;;;;;;;21.85;4.03;;;10.40;84.10;;;;;;5034609;28;20570;-91
2022/01/03 10:08:01;;;;;;;24.77;4.00;;;10.40;84.10;;;;;;5034653;28;20041;-90
2022/01/03 10:10:34;;;;;;;26.85;4.13;;;10.40;84.10;;;;;;5035007;28;20049;-90
2022/01/03 10:13:02;;;;;;;27.95;4.75;;;10.40;84.10;;;;;;5034864;28;20520;-91
2022/01/03 10:15:30;;;;;;;29.63;4.70;;;10.40;84.10;;;;;;5034169;28;20060;-91
2022/01/03 10:17:57;;;;;;;35.30;4.80;;;10.40;84.10;;;;;;5034933;28;20123;-91
2022/01/03 10:20:29;;;;;;;23.00;4.68;;;10.50;84.10;;;;;;5034764;28;20053;-91
2022/01/03 10:23:16;;;;;;;28.33;5.25;;;10.50;84.10;;;;;;5034841;28;20054;-91
2022/01/03 10:25:46;;;;;;;23.00;3.67;;;10.50;84.10;;;;;;5034585;28;20050;-91
2022/01/03 10:28:24;;;;;;;23.20;3.85;;;10.50;84.10;;;;;;5034613;28;20124;-91
2022/01/03 10:30:52;;;;;;;30.02;3.92;;;10.60;84.10;;;;;;5034720;28;20053;-90
2022/01/03 10:33:22;;;;;;;24.00;4.22;;;10.60;84.10;;;;;;5032002;28;20087;-89
2022/01/03 10:35:56;;;;;;;25.30;4.60;;;10.60;84.10;;;;;;5031373;28;20064;-90
2022/01/03 10:38:46;;;;;;;26.75;4.22;;;10.70;84.10;;;;;;5026796;28;20053;-92
2022/01/03 10:41:23;;;;;;;28.13;4.22;;;10.70;84.00;;;;;;5019292;28;20141;-91
2022/01/03 10:44:02;;;;;;;28.92;4.63;;;10.70;84.00;;;;;;5017869;28;20046;-90
2022/01/03 10:46:57;;;;;;;27.35;4.38;;;10.80;84.00;;;;;;5015470;28;20129;-90
2022/01/03 10:49:31;;;;;;;26.48;4.22;;;10.80;83.90;;;;;;5026251;28;20137;-90
2022/01/03 10:52:22;;;;;;;28.77;4.85;;;10.90;83.90;;;;;;5029888;28;20081;-91
2022/01/03 10:55:18;;;;;;;37.55;4.43;;;10.90;83.90;;;;;;5012635;28;20080;-91
2022/01/03 10:58:11;;;;;;;29.83;4.43;;;10.90;83.80;;;;;;5030596;28;20061;-90
2022/01/03 11:01:09;;;;;;;24.38;4.40;;;10.90;83.80;;;;;;5014682;28;20054;-89
2022/01/03 11:03:52;;;;;;;26.53;4.00;;;11.00;83.70;;;;;;5027974;28;20048;-91
2022/01/03 11:11:55;;;;;;;27.50;4.13;;;11.00;83.70;;;;;;5017690;28;20431;-91
2022/01/03 11:14:39;;;;;;;20.88;3.88;;;11.00;83.70;;;;;;5015726;28;20048;-90
2022/01/03 11:17:28;;;;;;;34.85;4.22;;;11.10;83.60;;;;;;5017111;28;20052;-89
2022/01/03 11:19:59;;;;;;;26.50;4.18;;;11.10;83.60;;;;;;5015815;28;20059;-90
2022/01/03 11:22:42;;;;;;;29.63;4.60;;;11.10;83.60;;;;;;5015114;28;20072;-92
2022/01/03 11:25:10;;;;;;;26.52;3.90;;;11.10;83.70;;;;;;5015099;28;20042;-89
2022/01/03 11:27:40;;;;;;;25.73;4.43;;;11.20;83.70;;;;;;5015167;28;20046;-89
2022/01/03 11:30:10;;;;;;;21.42;3.47;;;11.20;83.70;;;;;;5017029;28;20054;-90
2022/01/03 11:32:43;;;;;;;29.85;3.92;;;11.20;83.70;;;;;;5017234;28;20513;-89
2022/01/03 11:35:11;;;;;;;24.42;3.67;;;11.20;83.70;;;;;;5018772;28;20048;-90
2022/01/03 11:37:40;;;;;;;20.95;4.03;;;11.20;83.70;;;;;;5026673;28;20509;-90
2022/01/03 11:40:10;;;;;;;27.77;4.05;;;11.20;83.70;;;;;;5014569;28;20064;-90
2022/01/03 11:42:38;;;;;;;25.33;3.95;;;11.20;83.70;;;;;;5014675;28;20126;-91
2022/01/03 11:45:06;;;;;;;31.23;4.63;;;11.30;83.70;;;;;;5012514;28;20058;-89
2022/01/03 11:47:33;;;;;;;24.52;5.00;;;11.20;83.60;;;;;;5017165;28;20084;-90
2022/01/03 11:50:00;;;;;;;30.23;4.47;;;11.30;83.60;;;;;;5018720;28;20061;-91
2022/01/03 11:52:28;;;;;;;26.67;3.88;;;11.30;83.60;;;;;;5028277;28;20046;-90
2022/01/03 11:54:56;;;;;;;24.23;3.97;;;11.30;83.60;;;;;;5015273;28;20049;-89
2022/01/03 11:57:43;;;;;;;27.35;4.32;;;11.30;83.60;;;;;;5028587;28;20051;-89
2022/01/03 12:06:22;;;;;;;25.00;4.25;;;11.30;83.50;;;;;;5055305;28;20111;-90
2022/01/03 12:08:55;;;;;;;33.17;4.78;;;11.30;83.50;;;;;;5062801;28;20048;-90
2022/01/03 12:11:28;;;;;;;27.55;3.95;;;11.30;83.50;;;;;;5058363;28;20041;-90
2022/01/03 12:14:04;;;;;;;32.47;4.53;;;11.30;83.50;;;;;;5053967;28;20059;-90
2022/01/03 12:16:56;;;;;;;21.42;3.75;;;11.30;83.50;;;;;;5051168;28;20055;-90
2022/01/03 12:19:37;;;;;;;30.00;4.93;;;11.30;83.50;;;;;;5051426;28;20421;-90
2022/01/03 12:22:17;;;;;;;26.67;3.88;;;11.20;83.50;;;;;;5066146;28;20049;-90
2022/01/03 12:24:52;;;;;;;30.20;4.38;;;11.30;83.50;;;;;;5051162;28;20139;-89
2022/01/03 12:27:22;;;;;;;30.92;4.13;;;11.20;83.50;;;;;;5053921;28;20049;-89
2022/01/03 12:29:58;;;;;;;26.83;4.15;;;11.20;83.60;;;;;;5054093;28;20052;-89
2022/01/03 12:32:57;;;;;;;29.70;4.72;;;11.20;83.60;;;;;;5051152;28;20051;-90
2022/01/03 12:35:24;;;;;;;15.57;3.15;;;11.20;83.60;;;;;;5041274;28;20037;-89
2022/01/03 12:38:04;;;;;;;17.85;3.00;;;11.20;83.70;;;;;;5021346;28;20478;-89
2022/01/03 12:40:34;;;;;;;25.90;4.35;;;11.20;83.60;;;;;;5016594;28;20041;-89
2022/01/03 12:43:05;;;;;;;21.52;3.83;;;11.20;83.70;;;;;;5012811;28;20409;-89
2022/01/03 12:45:32;;;;;;;21.77;3.72;;;11.20;83.60;;;;;;5014621;28;20458;-89
2022/01/03 12:48:09;;;;;;;17.23;3.15;;;11.10;83.60;;;;;;5026559;28;20133;-91
2022/01/03 12:50:51;;;;;;;23.27;3.03;;;11.10;83.60;;;;;;5018152;28;20061;-89
2022/01/03 12:53:27;;;;;;;23.60;3.72;;;11.10;83.60;;;;;;5016180;28;20126;-90
2022/01/03 12:56:03;;;;;;;17.90;3.03;;;11.00;83.60;;;;;;5016753;28;20050;-89
2022/01/03 12:58:30;;;;;;;19.75;3.85;;;11.00;83.60;;;;;;5015993;28;20037;-90
2022/01/03 13:01:00;;;;;;;15.88;3.40;;;11.00;83.70;;;;;;5012276;28;20045;-90
2022/01/03 13:03:39;;;;;;;18.58;3.60;;;11.00;83.70;;;;;;5015432;28;20089;-89
2022/01/03 13:06:16;;;;;;;16.88;3.33;;;11.00;83.80;;;;;;5016081;28;20058;-90
2022/01/03 13:08:52;;;;;;;15.68;3.88;;;10.90;83.80;;;;;;5016487;28;20064;-90
2022/01/03 13:11:31;;;;;;;19.15;4.05;;;10.90;83.90;;;;;;5017083;28;20052;-89
2022/01/03 13:14:08;;;;;;;23.92;4.20;;;10.90;84.00;;;;;;5020026;28;20046;-89
2022/01/03 13:16:51;;;;;;;24.55;4.22;;;10.90;84.10;;;;;;5019807;28;20187;-91
2022/01/03 13:19:20;;;;;;;19.67;3.28;;;10.90;84.10;;;;;;5018473;28;20049;-91
2022/01/03 13:21:50;;;;;;;18.05;3.40;;;10.90;84.20;;;;;;5016350;28;20419;-89